Aeroporto :
LOGIN :

Iscrizione | Disclaimer

   EN    FR    IT 

 










Sommario :    VFR   VFR Marginale   IFR   IFR Intensivo   IFR Molto Intensivo
Visibilità : 
Base nubi : 
>= 8 km
>= 3000ft
5 / 8 km
1000 / 3000 ft
1500m / 5 km
500 / 1000 ft
800 / 1500m
200 / 500 ft
< 800m
< 200 ft
Simboli :   Temporali  Nebbia  Neve Forte  Precipitazioni Forti  Vento > 20 kt
SIGMETs :   Varie  Temporali  Ghiacco  Turbolenza  Onda orograficha  Ceneri Vulcaniche






- Altitudine del aeroporto : 138 ft
- Codice IATA : BIO


LEBB - Bilbao

ULTIMO METAR :
  • 131500Z 27006KT 220V310 9999 -RA SCT025 SCT045 BKN058 11/10 Q1012 NOSIG

METARs OBSOLETI :
  • 131430Z 26005KT 210V300 9999 SCT025 SCT038 BKN052 12/09 Q1012 NOSIG
  • 131400Z 29007KT 250V320 9999 SCT025 BKN045 13/08 Q1012 NOSIG
  • 131330Z 28007KT 240V310 9999 FEW028 SCT045 BKN055 13/09 Q1012 NOSIG
  • 131300Z 29009KT 260V320 9999 -RA FEW025 BKN033 BKN060 13/09 Q1012 NOSIG
  • 131230Z 28007KT 230V300 9999 FEW027 SCT045 BKN058 14/08 Q1012 NOSIG

TAF TAF LEBB
Valido dal 13 a 12 ore il 14 a 12 ore UTC


131100Z 1312/1412 30009KT 8000 SCT025 SCT045 TX13/1314Z TN06/1406Z
TEMPO 1400/1407 27018G30KT
TEMPO 1320/1412 3000 RA SHRA BKN010 BKN020TCU
PROB40
TEMPO 1400/1407 3000 SHRA TS SCT030CB



MetMap, La meteo Aeronautica in un colpo d'occhio ! - Copyright ORBIFLY Dicembre 2007 - Disclaimer

ORBIFLY MET'MAP TEAM :

Programmazione e sviluppo : Alexandra Zaïnal
Concezione e sviluppo : Baudouin d'Aumeries
Co-Programmazione e sviluppo : Marc-Olivier Méhu
Supporto tecnico e logistico : Manuel Goepfert
Aiuto per la traduzione : Arnaldo La Scala

Contatto : metmap@orbifly.com




FONTI E CREDITI :

   NOAA